sensor_id;sensor_type;location;lat;lon;timestamp;P1;durP1;ratioP1;P2;durP2;ratioP2
1122;SDS011;548;48.778;9.252;2023-02-11T12:41:44;19.40;;;18.20;;
1122;SDS011;548;48.778;9.252;2023-02-11T12:44:44;17.50;;;16.40;;
1122;SDS011;548;48.778;9.252;2023-02-11T12:47:31;17.87;;;16.47;;
1122;SDS011;548;48.778;9.252;2023-02-11T12:50:22;19.20;;;17.60;;
1122;SDS011;548;48.778;9.252;2023-02-11T12:53:09;17.00;;;15.73;;
1122;SDS011;548;48.778;9.252;2023-02-11T13:02:45;18.00;;;16.60;;
1122;SDS011;548;48.778;9.252;2023-02-11T13:05:36;19.23;;;17.90;;
1122;SDS011;548;48.778;9.252;2023-02-11T13:08:21;17.63;;;16.23;;
1122;SDS011;548;48.778;9.252;2023-02-11T13:11:28;18.67;;;17.10;;
1122;SDS011;548;48.778;9.252;2023-02-11T13:14:08;18.30;;;16.70;;
1122;SDS011;548;48.778;9.252;2023-02-11T13:16:55;17.40;;;16.00;;
1122;SDS011;548;48.778;9.252;2023-02-11T13:19:49;19.10;;;17.37;;
1122;SDS011;548;48.778;9.252;2023-02-11T13:22:47;17.93;;;16.60;;
1122;SDS011;548;48.778;9.252;2023-02-11T13:25:39;18.33;;;16.83;;
1122;SDS011;548;48.778;9.252;2023-02-11T13:28:24;17.47;;;16.00;;
1122;SDS011;548;48.778;9.252;2023-02-11T13:31:12;19.30;;;17.80;;
1122;SDS011;548;48.778;9.252;2023-02-11T13:33:48;18.10;;;16.57;;
1122;SDS011;548;48.778;9.252;2023-02-11T13:36:27;20.90;;;19.07;;
1122;SDS011;548;48.778;9.252;2023-02-11T13:39:00;21.57;;;19.70;;
1122;SDS011;548;48.778;9.252;2023-02-11T13:41:31;21.43;;;19.70;;
1122;SDS011;548;48.778;9.252;2023-02-11T13:44:12;23.30;;;21.03;;
1122;SDS011;548;48.778;9.252;2023-02-11T13:46:55;24.27;;;22.07;;
1122;SDS011;548;48.778;9.252;2023-02-11T13:49:33;23.27;;;21.07;;
1122;SDS011;548;48.778;9.252;2023-02-11T13:52:15;21.77;;;19.90;;
1122;SDS011;548;48.778;9.252;2023-02-11T13:54:55;25.03;;;22.50;;
1122;SDS011;548;48.778;9.252;2023-02-11T13:57:45;24.23;;;21.70;;
1122;SDS011;548;48.778;9.252;2023-02-11T14:00:46;22.83;;;20.83;;
1122;SDS011;548;48.778;9.252;2023-02-11T14:03:22;24.50;;;21.97;;
1122;SDS011;548;48.778;9.252;2023-02-11T14:06:09;23.97;;;21.73;;
1122;SDS011;548;48.778;9.252;2023-02-11T14:09:00;24.40;;;22.13;;
1122;SDS011;548;48.778;9.252;2023-02-11T14:11:44;25.57;;;22.97;;
1122;SDS011;548;48.778;9.252;2023-02-11T14:14:14;27.73;;;24.07;;
1122;SDS011;548;48.778;9.252;2023-02-11T14:20:00;25.53;;;22.50;;
1122;SDS011;548;48.778;9.252;2023-02-11T14:22:29;23.80;;;21.40;;
1122;SDS011;548;48.778;9.252;2023-02-11T14:25:11;22.90;;;20.70;;
1122;SDS011;548;48.778;9.252;2023-02-11T14:27:43;23.83;;;21.67;;
1122;SDS011;548;48.778;9.252;2023-02-11T14:30:22;24.77;;;22.53;;
1122;SDS011;548;48.778;9.252;2023-02-11T14:36:09;24.70;;;22.10;;
1122;SDS011;548;48.778;9.252;2023-02-11T14:38:48;25.30;;;22.60;;
1122;SDS011;548;48.778;9.252;2023-02-11T14:41:25;24.57;;;22.37;;
1122;SDS011;548;48.778;9.252;2023-02-11T14:43:56;23.43;;;21.07;;
1122;SDS011;548;48.778;9.252;2023-02-11T14:46:25;22.87;;;20.70;;
1122;SDS011;548;48.778;9.252;2023-02-11T14:48:54;25.07;;;22.63;;
1122;SDS011;548;48.778;9.252;2023-02-11T14:51:26;23.73;;;21.70;;
1122;SDS011;548;48.778;9.252;2023-02-11T14:53:56;23.57;;;21.47;;
1122;SDS011;548;48.778;9.252;2023-02-11T14:56:27;22.40;;;20.30;;
1122;SDS011;548;48.778;9.252;2023-02-11T14:58:55;22.00;;;20.00;;
1122;SDS011;548;48.778;9.252;2023-02-11T15:01:27;21.20;;;19.43;;
1122;SDS011;548;48.778;9.252;2023-02-11T15:03:56;21.93;;;20.03;;
1122;SDS011;548;48.778;9.252;2023-02-11T15:06:27;21.87;;;19.80;;
1122;SDS011;548;48.778;9.252;2023-02-11T15:08:57;29.47;;;21.47;;
1122;SDS011;548;48.778;9.252;2023-02-11T15:11:27;24.47;;;22.03;;
1122;SDS011;548;48.778;9.252;2023-02-11T15:13:57;24.07;;;21.80;;
1122;SDS011;548;48.778;9.252;2023-02-11T15:16:31;25.50;;;23.30;;
1122;SDS011;548;48.778;9.252;2023-02-11T15:19:00;25.27;;;23.13;;
1122;SDS011;548;48.778;9.252;2023-02-11T15:21:31;24.07;;;21.87;;
1122;SDS011;548;48.778;9.252;2023-02-11T15:24:00;23.77;;;21.57;;
1122;SDS011;548;48.778;9.252;2023-02-11T15:26:30;23.43;;;21.43;;
1122;SDS011;548;48.778;9.252;2023-02-11T15:28:57;22.67;;;20.37;;
1122;SDS011;548;48.778;9.252;2023-02-11T15:31:25;25.30;;;22.80;;
1122;SDS011;548;48.778;9.252;2023-02-11T15:33:53;22.90;;;20.87;;
1122;SDS011;548;48.778;9.252;2023-02-11T15:36:21;22.03;;;20.03;;
1122;SDS011;548;48.778;9.252;2023-02-11T15:41:43;22.63;;;20.30;;
1122;SDS011;548;48.778;9.252;2023-02-11T15:46:52;25.47;;;22.97;;
1122;SDS011;548;48.778;9.252;2023-02-11T15:49:19;23.87;;;21.53;;
1122;SDS011;548;48.778;9.252;2023-02-11T15:51:47;22.80;;;21.00;;
1122;SDS011;548;48.778;9.252;2023-02-11T15:54:16;22.70;;;20.70;;
1122;SDS011;548;48.778;9.252;2023-02-11T15:56:46;24.07;;;21.70;;
1122;SDS011;548;48.778;9.252;2023-02-11T15:59:16;21.03;;;19.23;;
1122;SDS011;548;48.778;9.252;2023-02-11T16:01:44;24.00;;;21.80;;
1122;SDS011;548;48.778;9.252;2023-02-11T16:04:14;22.57;;;20.40;;
1122;SDS011;548;48.778;9.252;2023-02-11T16:06:42;21.00;;;19.30;;
1122;SDS011;548;48.778;9.252;2023-02-11T16:09:23;25.00;;;21.70;;
1122;SDS011;548;48.778;9.252;2023-02-11T16:11:58;22.43;;;20.33;;
1122;SDS011;548;48.778;9.252;2023-02-11T16:14:28;24.57;;;22.23;;
1122;SDS011;548;48.778;9.252;2023-02-11T16:16:57;24.37;;;21.97;;
1122;SDS011;548;48.778;9.252;2023-02-11T16:19:27;23.60;;;21.10;;
1122;SDS011;548;48.778;9.252;2023-02-11T16:21:55;23.00;;;20.90;;
1122;SDS011;548;48.778;9.252;2023-02-11T16:24:26;24.07;;;21.73;;
1122;SDS011;548;48.778;9.252;2023-02-11T16:26:55;24.20;;;21.80;;
1122;SDS011;548;48.778;9.252;2023-02-11T16:29:25;23.80;;;21.60;;
1122;SDS011;548;48.778;9.252;2023-02-11T16:31:53;24.03;;;21.73;;
1122;SDS011;548;48.778;9.252;2023-02-11T16:34:30;23.53;;;21.23;;
1122;SDS011;548;48.778;9.252;2023-02-11T16:36:56;25.40;;;23.00;;
1122;SDS011;548;48.778;9.252;2023-02-11T16:39:23;26.87;;;24.37;;
1122;SDS011;548;48.778;9.252;2023-02-11T16:41:51;26.57;;;23.47;;
1122;SDS011;548;48.778;9.252;2023-02-11T16:44:18;27.67;;;24.70;;
1122;SDS011;548;48.778;9.252;2023-02-11T16:46:45;26.23;;;23.40;;
1122;SDS011;548;48.778;9.252;2023-02-11T16:49:14;25.57;;;23.03;;
1122;SDS011;548;48.778;9.252;2023-02-11T16:51:46;28.40;;;23.60;;
1122;SDS011;548;48.778;9.252;2023-02-11T16:54:14;25.27;;;22.70;;
1122;SDS011;548;48.778;9.252;2023-02-11T16:56:42;27.33;;;24.47;;
1122;SDS011;548;48.778;9.252;2023-02-11T16:59:11;27.93;;;24.87;;
1122;SDS011;548;48.778;9.252;2023-02-11T17:01:38;27.20;;;24.53;;
1122;SDS011;548;48.778;9.252;2023-02-11T17:04:06;27.13;;;24.53;;
1122;SDS011;548;48.778;9.252;2023-02-11T17:06:40;26.60;;;23.80;;
1122;SDS011;548;48.778;9.252;2023-02-11T17:09:08;29.03;;;24.63;;
1122;SDS011;548;48.778;9.252;2023-02-11T17:11:36;29.47;;;26.67;;
1122;SDS011;548;48.778;9.252;2023-02-11T17:14:02;27.87;;;25.27;;
1122;SDS011;548;48.778;9.252;2023-02-11T17:16:30;29.50;;;26.60;;
1122;SDS011;548;48.778;9.252;2023-02-11T17:18:57;28.50;;;25.83;;
1122;SDS011;548;48.778;9.252;2023-02-11T17:21:24;30.50;;;27.40;;
1122;SDS011;548;48.778;9.252;2023-02-11T17:23:50;38.37;;;33.07;;
1122;SDS011;548;48.778;9.252;2023-02-11T17:26:17;32.47;;;29.07;;
1122;SDS011;548;48.778;9.252;2023-02-11T17:28:44;34.83;;;31.20;;
1122;SDS011;548;48.778;9.252;2023-02-11T17:31:11;35.70;;;31.90;;
1122;SDS011;548;48.778;9.252;2023-02-11T17:33:39;31.83;;;28.67;;
1122;SDS011;548;48.778;9.252;2023-02-11T17:36:06;32.13;;;29.13;;
1122;SDS011;548;48.778;9.252;2023-02-11T17:38:35;33.00;;;29.60;;
1122;SDS011;548;48.778;9.252;2023-02-11T17:41:02;32.30;;;28.50;;
1122;SDS011;548;48.778;9.252;2023-02-11T17:43:30;29.37;;;26.57;;
1122;SDS011;548;48.778;9.252;2023-02-11T17:45:57;31.67;;;28.67;;
1122;SDS011;548;48.778;9.252;2023-02-11T17:48:24;31.47;;;28.50;;
1122;SDS011;548;48.778;9.252;2023-02-11T17:50:52;28.20;;;25.30;;
1122;SDS011;548;48.778;9.252;2023-02-11T17:53:18;30.63;;;27.60;;
1122;SDS011;548;48.778;9.252;2023-02-11T17:55:45;29.00;;;25.90;;
1122;SDS011;548;48.778;9.252;2023-02-11T17:58:12;28.70;;;25.87;;
